createdAt,value
2023-01-19T00:01:45.175Z,11.90
2023-01-19T00:04:13.874Z,13.93
2023-01-19T00:06:42.706Z,14.07
2023-01-19T00:09:11.506Z,19.42
2023-01-19T00:11:40.416Z,15.63
2023-01-19T00:14:08.696Z,13.57
2023-01-19T00:16:37.445Z,11.02
2023-01-19T00:19:05.859Z,17.83
2023-01-19T00:21:34.564Z,13.13
2023-01-19T00:24:03.157Z,16.85
2023-01-19T00:26:31.348Z,12.18
2023-01-19T00:28:59.690Z,13.05
2023-01-19T00:31:30.813Z,13.63
2023-01-19T00:33:59.075Z,15.57
2023-01-19T00:36:27.692Z,19.58
2023-01-19T00:38:56.336Z,12.20
2023-01-19T00:41:45.086Z,20.90
2023-01-19T00:44:13.908Z,11.00
2023-01-19T00:46:42.509Z,12.40
2023-01-19T00:49:12.065Z,11.75
2023-01-19T00:51:40.912Z,12.95
2023-01-19T00:54:11.631Z,14.50
2023-01-19T00:56:40.332Z,11.57
2023-01-19T00:59:08.976Z,12.73
2023-01-19T01:01:44.988Z,14.00
2023-01-19T01:04:15.673Z,14.23
2023-01-19T01:06:44.461Z,12.18
2023-01-19T01:09:15.934Z,10.27
2023-01-19T01:11:45.057Z,11.18
2023-01-19T01:14:13.825Z,10.68
2023-01-19T01:16:42.920Z,12.23
2023-01-19T01:19:11.603Z,13.88
2023-01-19T01:21:40.178Z,11.82
2023-01-19T01:24:09.818Z,11.70
2023-01-19T01:26:38.817Z,12.80
2023-01-19T01:29:07.838Z,14.98
2023-01-19T01:31:36.770Z,11.15
2023-01-19T01:34:05.590Z,13.20
2023-01-19T01:36:34.780Z,11.80
2023-01-19T01:39:03.775Z,16.80
2023-01-19T01:41:32.428Z,15.20
2023-01-19T01:44:03.032Z,12.35
2023-01-19T01:46:33.062Z,13.48
2023-01-19T01:49:15.829Z,12.68
2023-01-19T01:51:48.738Z,13.30
2023-01-19T01:54:30.054Z,12.15
2023-01-19T01:57:02.586Z,11.27
2023-01-19T01:59:40.414Z,11.45
2023-01-19T02:02:35.356Z,11.07
2023-01-19T02:05:11.335Z,11.90
2023-01-19T02:08:06.870Z,10.40
2023-01-19T02:10:53.752Z,11.02
2023-01-19T02:13:22.944Z,10.35
2023-01-19T02:15:56.719Z,12.35
2023-01-19T02:18:28.663Z,10.73
2023-01-19T02:21:14.275Z,12.88
2023-01-19T02:23:46.194Z,13.05
2023-01-19T02:26:36.977Z,13.32
2023-01-19T02:29:09.465Z,11.23
2023-01-19T02:31:40.327Z,11.15
2023-01-19T02:34:17.639Z,12.30
2023-01-19T02:36:55.627Z,10.77
2023-01-19T02:39:34.454Z,10.75
2023-01-19T02:42:06.416Z,10.43
2023-01-19T02:44:35.645Z,11.50
2023-01-19T02:47:05.313Z,8.15
2023-01-19T02:49:33.905Z,12.43
2023-01-19T02:52:02.731Z,12.65
2023-01-19T02:54:49.579Z,10.02
2023-01-19T02:57:49.361Z,9.98
2023-01-19T03:00:56.007Z,10.50
2023-01-19T03:04:17.555Z,12.57
2023-01-19T03:06:54.560Z,10.20
2023-01-19T03:09:47.640Z,10.48
2023-01-19T03:12:37.651Z,13.10
2023-01-19T03:15:34.022Z,12.30
2023-01-19T03:18:03.834Z,12.18
2023-01-19T03:20:32.487Z,9.90
2023-01-19T03:23:05.116Z,11.75
2023-01-19T03:25:36.196Z,9.23
2023-01-19T03:28:05.886Z,11.25
2023-01-19T03:30:38.465Z,11.25
2023-01-19T03:33:12.333Z,9.50
2023-01-19T03:35:47.255Z,10.02
2023-01-19T03:38:18.716Z,14.45
2023-01-19T03:40:48.307Z,13.73
2023-01-19T03:43:18.308Z,11.20
2023-01-19T03:45:47.204Z,11.38
2023-01-19T03:48:15.834Z,14.35
2023-01-19T03:50:44.257Z,14.57
2023-01-19T03:53:14.779Z,12.80
2023-01-19T03:55:44.862Z,12.15
2023-01-19T03:58:13.726Z,15.93
2023-01-19T04:00:42.586Z,16.38
2023-01-19T04:03:18.702Z,15.57
2023-01-19T04:05:48.036Z,13.70
2023-01-19T04:08:17.046Z,13.85
2023-01-19T04:10:45.677Z,13.88
2023-01-19T04:13:14.287Z,15.10
2023-01-19T04:15:43.128Z,18.73
2023-01-19T04:18:11.898Z,14.50
2023-01-19T04:20:40.572Z,14.73
2023-01-19T04:23:09.218Z,16.10
2023-01-19T04:25:38.964Z,17.45
2023-01-19T04:28:07.831Z,13.65
2023-01-19T04:30:36.477Z,12.07
2023-01-19T04:33:05.044Z,12.63
2023-01-19T04:35:35.597Z,12.95
2023-01-19T04:38:03.766Z,14.10
2023-01-19T04:40:32.493Z,14.02
2023-01-19T04:43:01.569Z,13.45
2023-01-19T04:45:30.300Z,10.35
2023-01-19T04:47:58.956Z,16.55
2023-01-19T04:50:27.270Z,11.75
2023-01-19T04:52:55.788Z,12.20
2023-01-19T04:55:24.435Z,14.98
2023-01-19T04:57:52.748Z,13.43
2023-01-19T05:00:22.139Z,14.43
2023-01-19T05:02:51.063Z,14.40
2023-01-19T05:05:20.209Z,12.85
2023-01-19T05:07:48.913Z,11.82
2023-01-19T05:10:18.047Z,11.80
2023-01-19T05:12:46.633Z,11.50
2023-01-19T05:15:15.251Z,10.18
2023-01-19T05:17:43.822Z,10.23
2023-01-19T05:20:15.909Z,12.15
2023-01-19T05:22:45.267Z,13.80
2023-01-19T05:25:13.775Z,13.25
2023-01-19T05:27:41.743Z,13.52
2023-01-19T05:30:11.202Z,13.80
2023-01-19T05:32:39.978Z,11.77
2023-01-19T05:35:08.793Z,10.35
2023-01-19T05:37:37.439Z,12.45
2023-01-19T05:40:06.966Z,12.73
2023-01-19T05:42:35.616Z,13.85
2023-01-19T05:45:04.211Z,11.65
2023-01-19T05:47:33.607Z,15.77
2023-01-19T05:50:02.165Z,13.43
2023-01-19T05:52:30.816Z,12.32
2023-01-19T05:54:59.588Z,12.77
2023-01-19T05:57:28.150Z,15.68
2023-01-19T05:59:56.799Z,14.45
2023-01-19T06:02:29.938Z,12.85
2023-01-19T06:04:58.869Z,12.93
2023-01-19T06:07:29.265Z,13.50
2023-01-19T06:09:57.938Z,14.68
2023-01-19T06:12:26.212Z,12.98
2023-01-19T06:14:54.487Z,12.70
2023-01-19T06:17:23.414Z,11.85
2023-01-19T06:19:52.005Z,12.10
2023-01-19T06:22:19.934Z,15.00
2023-01-19T06:24:48.217Z,12.35
2023-01-19T06:27:16.845Z,13.65
2023-01-19T06:29:45.400Z,14.10
2023-01-19T06:32:13.753Z,12.90
2023-01-19T06:34:44.984Z,11.82
2023-01-19T06:37:13.487Z,13.02
2023-01-19T06:39:42.517Z,11.75
2023-01-19T06:42:10.807Z,12.38
2023-01-19T06:44:39.419Z,10.98
2023-01-19T06:47:15.723Z,13.68
2023-01-19T06:49:44.840Z,13.27
2023-01-19T06:52:16.883Z,12.90
2023-01-19T06:54:47.505Z,12.05
2023-01-19T06:57:16.633Z,13.65
2023-01-19T06:59:46.118Z,12.75
2023-01-19T07:02:27.936Z,10.32
2023-01-19T07:05:00.240Z,16.38
2023-01-19T07:07:29.474Z,12.40
2023-01-19T07:09:58.519Z,14.27
2023-01-19T07:12:27.307Z,14.07
2023-01-19T07:14:55.933Z,14.02
2023-01-19T07:17:24.539Z,13.15
2023-01-19T07:19:53.305Z,14.57
2023-01-19T07:22:21.481Z,18.73
2023-01-19T07:24:49.483Z,14.30
2023-01-19T07:27:18.107Z,16.25
2023-01-19T07:29:46.942Z,10.73
2023-01-19T07:32:16.147Z,13.82
2023-01-19T07:34:44.368Z,12.40
2023-01-19T07:37:13.004Z,13.73
2023-01-19T07:39:41.139Z,16.63
2023-01-19T07:42:09.709Z,12.15
2023-01-19T07:44:38.446Z,11.10
2023-01-19T07:47:12.851Z,13.35
2023-01-19T07:49:41.495Z,15.02
2023-01-19T07:52:10.852Z,14.10
2023-01-19T07:54:40.079Z,11.98
2023-01-19T07:57:08.251Z,18.63
2023-01-19T07:59:36.608Z,15.82
2023-01-19T08:02:05.361Z,11.80
2023-01-19T08:04:34.607Z,15.45
2023-01-19T08:07:04.750Z,14.45
2023-01-19T08:09:33.355Z,14.15
2023-01-19T08:12:01.976Z,16.15
2023-01-19T08:14:31.189Z,14.60
2023-01-19T08:17:03.305Z,12.13
2023-01-19T08:19:31.896Z,11.00
2023-01-19T08:22:00.759Z,13.18
2023-01-19T08:24:30.294Z,12.15
2023-01-19T08:27:02.965Z,15.07
2023-01-19T08:29:35.066Z,13.23
2023-01-19T08:32:04.051Z,15.38
2023-01-19T08:34:32.919Z,14.95
2023-01-19T08:37:01.676Z,11.60
2023-01-19T08:39:30.431Z,12.30
2023-01-19T08:42:00.131Z,13.50
2023-01-19T08:44:29.388Z,13.68
2023-01-19T08:46:58.125Z,10.13
2023-01-19T08:49:26.741Z,11.48
2023-01-19T08:51:55.509Z,11.85
2023-01-19T08:54:24.592Z,14.43
2023-01-19T08:56:53.161Z,12.10
2023-01-19T08:59:22.065Z,14.23
2023-01-19T09:01:50.704Z,13.45
2023-01-19T09:04:19.788Z,11.23
2023-01-19T09:06:48.091Z,10.60
2023-01-19T09:09:16.860Z,11.23
2023-01-19T09:11:45.539Z,12.30
2023-01-19T09:14:13.984Z,9.77
2023-01-19T09:16:42.379Z,12.82
2023-01-19T09:19:10.962Z,10.65
2023-01-19T09:21:39.904Z,10.15
2023-01-19T09:24:08.493Z,10.48
2023-01-19T09:26:37.941Z,10.60
2023-01-19T09:29:06.563Z,13.13
2023-01-19T09:31:35.329Z,9.88
2023-01-19T09:34:03.540Z,8.82
2023-01-19T09:36:33.708Z,12.70
2023-01-19T09:39:01.982Z,12.25
2023-01-19T09:41:31.319Z,15.52
2023-01-19T09:44:01.767Z,12.80
2023-01-19T09:46:36.620Z,11.80
2023-01-19T09:49:17.461Z,12.02
2023-01-19T09:51:48.826Z,11.57
2023-01-19T09:54:40.523Z,13.00
2023-01-19T09:57:13.950Z,11.80
2023-01-19T09:59:45.192Z,13.73
2023-01-19T10:02:54.286Z,12.23
2023-01-19T10:05:39.397Z,13.45
2023-01-19T10:08:43.422Z,14.75
2023-01-19T10:11:24.207Z,13.00
2023-01-19T10:13:55.674Z,11.20
2023-01-19T10:16:27.290Z,12.32
2023-01-19T10:19:01.373Z,15.48
2023-01-19T10:21:32.823Z,17.02
2023-01-19T10:24:16.125Z,14.95
2023-01-19T10:26:49.119Z,12.57
2023-01-19T10:29:38.774Z,14.93
2023-01-19T10:32:15.000Z,16.20
2023-01-19T10:34:43.837Z,15.38
2023-01-19T10:37:26.916Z,18.67
2023-01-19T10:40:24.292Z,14.85
2023-01-19T10:42:52.561Z,14.85
2023-01-19T10:45:23.576Z,17.10
2023-01-19T10:47:54.126Z,18.95
2023-01-19T10:50:28.022Z,15.35
2023-01-19T10:52:59.560Z,16.80
2023-01-19T10:55:31.751Z,20.77
2023-01-19T10:58:00.980Z,18.48
2023-01-19T11:00:43.436Z,20.13
2023-01-19T11:03:25.433Z,17.27
2023-01-19T11:05:54.518Z,17.98
2023-01-19T11:08:31.567Z,22.23
2023-01-19T11:11:05.817Z,18.92
2023-01-19T11:13:34.646Z,19.30
2023-01-19T11:16:23.811Z,23.38
2023-01-19T11:18:56.831Z,19.65
2023-01-19T11:21:28.516Z,26.30
2023-01-19T11:24:02.380Z,24.38
2023-01-19T11:26:58.752Z,38.25
2023-01-19T11:29:28.221Z,21.90
2023-01-19T11:31:59.137Z,22.30
2023-01-19T11:34:34.670Z,21.92
2023-01-19T11:37:18.937Z,23.30
2023-01-19T11:39:52.757Z,19.50
2023-01-19T11:42:22.019Z,31.10
2023-01-19T11:45:08.319Z,20.38
2023-01-19T11:47:53.398Z,24.45
2023-01-19T11:50:26.767Z,16.02
2023-01-19T11:53:07.149Z,22.50
2023-01-19T11:55:42.906Z,21.45
2023-01-19T11:58:18.989Z,16.23
2023-01-19T12:00:58.729Z,14.63
2023-01-19T12:03:32.177Z,20.70
2023-01-19T12:08:57.243Z,13.38
2023-01-19T12:11:36.283Z,18.60
2023-01-19T12:14:05.229Z,20.75
2023-01-19T12:16:35.640Z,14.18
2023-01-19T12:19:19.861Z,17.92
2023-01-19T12:21:49.761Z,16.13
2023-01-19T12:24:24.345Z,15.93
2023-01-19T12:27:35.368Z,16.83
2023-01-19T12:30:04.209Z,18.13
2023-01-19T12:32:38.325Z,18.42
2023-01-19T12:35:10.952Z,13.32
2023-01-19T12:37:42.417Z,22.25
2023-01-19T12:40:25.543Z,15.90
2023-01-19T12:43:02.860Z,19.92
2023-01-19T12:45:36.119Z,18.38
2023-01-19T12:48:05.371Z,16.98
2023-01-19T12:50:39.338Z,15.02
2023-01-19T12:53:18.187Z,14.90
2023-01-19T12:55:48.710Z,20.13
2023-01-19T12:58:24.900Z,20.05
2023-01-19T13:01:14.721Z,18.08
2023-01-19T13:03:44.778Z,19.27
2023-01-19T13:06:13.575Z,19.42
2023-01-19T13:08:59.667Z,20.02
2023-01-19T13:11:33.297Z,18.75
2023-01-19T13:14:03.130Z,18.80
2023-01-19T13:16:31.659Z,22.80
2023-01-19T13:19:09.913Z,19.67
2023-01-19T13:21:44.411Z,18.20
2023-01-19T13:24:24.999Z,15.07
2023-01-19T13:26:53.533Z,23.00
2023-01-19T13:29:42.808Z,25.25
2023-01-19T13:32:20.693Z,21.88
2023-01-19T13:35:00.529Z,20.02
2023-01-19T13:37:41.102Z,21.48
2023-01-19T13:40:20.650Z,19.60
2023-01-19T13:42:49.844Z,21.73
2023-01-19T13:45:18.406Z,18.55
2023-01-19T13:47:49.547Z,23.20
2023-01-19T13:50:26.256Z,18.40
2023-01-19T13:52:56.984Z,25.45
2023-01-19T13:55:26.140Z,20.13
2023-01-19T13:57:55.579Z,26.75
2023-01-19T14:00:25.622Z,29.65
2023-01-19T14:03:15.370Z,23.50
2023-01-19T14:05:45.006Z,25.98
2023-01-19T14:08:16.467Z,27.10
2023-01-19T14:10:47.823Z,27.00
2023-01-19T14:13:36.463Z,29.95
2023-01-19T14:16:12.343Z,24.58
2023-01-19T14:18:41.070Z,22.38
2023-01-19T14:21:13.511Z,24.83
2023-01-19T14:24:09.283Z,22.90
2023-01-19T14:26:47.421Z,27.38
2023-01-19T14:29:39.004Z,23.33
2023-01-19T14:32:25.149Z,24.08
2023-01-19T14:35:06.287Z,22.95
2023-01-19T14:37:37.603Z,33.65
2023-01-19T14:40:20.403Z,21.40
2023-01-19T14:43:15.201Z,24.77
2023-01-19T14:45:48.912Z,22.13
2023-01-19T14:48:20.205Z,20.27
2023-01-19T14:51:02.755Z,19.83
2023-01-19T14:53:39.276Z,26.88
2023-01-19T14:56:09.062Z,24.85
2023-01-19T14:58:37.485Z,24.48
2023-01-19T15:01:07.889Z,21.98
2023-01-19T15:03:45.595Z,25.73
2023-01-19T15:06:20.907Z,21.65
2023-01-19T15:08:51.424Z,24.48
2023-01-19T15:11:30.933Z,22.80
2023-01-19T15:14:00.421Z,26.63
2023-01-19T15:16:31.659Z,27.48
2023-01-19T15:19:00.272Z,23.27
2023-01-19T15:21:28.836Z,22.30
2023-01-19T15:23:59.430Z,28.17
2023-01-19T15:26:28.870Z,23.73
2023-01-19T15:28:58.224Z,33.35
2023-01-19T15:31:27.646Z,22.75
2023-01-19T15:33:56.066Z,29.35
2023-01-19T15:36:25.615Z,26.77
2023-01-19T15:38:54.270Z,30.45
2023-01-19T15:41:26.715Z,23.48
2023-01-19T15:43:55.490Z,24.98
2023-01-19T15:46:25.051Z,24.35
2023-01-19T15:48:54.432Z,25.10
2023-01-19T15:51:26.906Z,30.23
2023-01-19T15:53:56.278Z,25.98
2023-01-19T15:56:26.997Z,22.08
2023-01-19T15:58:56.515Z,21.25
2023-01-19T16:01:32.822Z,29.52
2023-01-19T16:04:07.133Z,21.83
2023-01-19T16:06:36.102Z,21.52
2023-01-19T16:09:21.374Z,28.30
2023-01-19T16:11:50.215Z,21.67
2023-01-19T16:14:18.359Z,22.83
2023-01-19T16:16:47.537Z,26.17
2023-01-19T16:19:17.434Z,25.52
2023-01-19T16:21:45.490Z,21.40
2023-01-19T16:24:14.229Z,26.88
2023-01-19T16:26:42.799Z,21.02
2023-01-19T16:29:12.258Z,19.30
2023-01-19T16:31:42.838Z,23.98
2023-01-19T16:34:11.715Z,25.17
2023-01-19T16:36:42.656Z,23.52
2023-01-19T16:39:14.011Z,24.77
2023-01-19T16:41:42.850Z,19.15
2023-01-19T16:44:16.464Z,23.35
2023-01-19T16:49:17.399Z,19.38
2023-01-19T16:51:46.903Z,23.55
2023-01-19T16:54:17.302Z,26.58
2023-01-19T16:56:45.888Z,23.17
2023-01-19T16:59:16.642Z,21.13
2023-01-19T17:01:46.482Z,21.90
2023-01-19T17:04:15.226Z,32.22
2023-01-19T17:06:44.130Z,29.58
2023-01-19T17:09:12.774Z,27.20
2023-01-19T17:11:42.171Z,25.98
2023-01-19T17:14:19.295Z,27.60
2023-01-19T17:16:48.189Z,21.70
2023-01-19T17:19:22.297Z,31.80
2023-01-19T17:21:51.982Z,27.15
2023-01-19T17:24:20.709Z,32.67
2023-01-19T17:26:50.065Z,29.58
2023-01-19T17:29:19.176Z,24.95
2023-01-19T17:31:52.558Z,30.75
2023-01-19T17:34:21.012Z,25.38
2023-01-19T17:36:51.653Z,24.90
2023-01-19T17:39:20.001Z,30.27
2023-01-19T17:41:50.278Z,33.10
2023-01-19T17:44:19.864Z,35.55
2023-01-19T17:46:48.549Z,32.50
2023-01-19T17:49:17.283Z,34.92
2023-01-19T17:51:46.070Z,41.22
2023-01-19T17:54:15.346Z,34.10
2023-01-19T17:56:44.140Z,32.80
2023-01-19T17:59:12.823Z,28.48
2023-01-19T18:01:41.650Z,29.88
2023-01-19T18:04:11.186Z,28.60
2023-01-19T18:06:40.989Z,26.45
2023-01-19T18:09:09.815Z,23.88
2023-01-19T18:11:38.407Z,23.98
2023-01-19T18:14:08.031Z,22.63
2023-01-19T18:16:37.262Z,22.90
2023-01-19T18:19:05.949Z,23.33
2023-01-19T18:21:34.609Z,22.15
2023-01-19T18:24:05.199Z,19.88
2023-01-19T18:26:35.865Z,23.25
2023-01-19T18:29:04.635Z,21.50
2023-01-19T18:31:33.326Z,23.10
2023-01-19T18:34:01.771Z,27.90
2023-01-19T18:36:33.244Z,29.70
2023-01-19T18:39:03.445Z,35.05
2023-01-19T18:41:32.252Z,24.30
2023-01-19T18:44:00.987Z,24.75
2023-01-19T18:46:29.372Z,27.00
2023-01-19T18:48:57.987Z,27.00
2023-01-19T18:51:26.597Z,24.38
2023-01-19T18:53:55.431Z,27.20
2023-01-19T18:56:23.786Z,22.67
2023-01-19T18:58:54.352Z,21.67
2023-01-19T19:01:27.594Z,22.83
2023-01-19T19:03:57.136Z,23.35
2023-01-19T19:06:28.387Z,18.25
2023-01-19T19:08:58.697Z,18.77
2023-01-19T19:11:28.074Z,21.17
2023-01-19T19:13:59.560Z,19.58
2023-01-19T19:16:28.726Z,23.17
2023-01-19T19:18:57.397Z,19.50
2023-01-19T19:21:26.717Z,19.42
2023-01-19T19:23:57.496Z,18.65
2023-01-19T19:26:27.286Z,14.60
2023-01-19T19:28:55.888Z,15.80
2023-01-19T19:31:27.364Z,13.27
2023-01-19T19:33:57.178Z,15.85
2023-01-19T19:36:27.264Z,17.58
2023-01-19T19:38:56.025Z,14.00
2023-01-19T19:41:28.899Z,19.90
2023-01-19T19:43:57.901Z,13.93
2023-01-19T19:46:27.724Z,16.67
2023-01-19T19:48:56.849Z,15.90
2023-01-19T19:51:27.881Z,13.25
2023-01-19T19:53:58.777Z,12.98
2023-01-19T19:56:29.776Z,14.20
2023-01-19T19:59:00.165Z,11.57
2023-01-19T20:01:32.978Z,13.15
2023-01-19T20:04:08.703Z,15.57
2023-01-19T20:06:40.181Z,15.63
2023-01-19T20:09:11.326Z,15.80
2023-01-19T20:11:40.123Z,13.93
2023-01-19T20:14:09.649Z,13.77
2023-01-19T20:16:38.784Z,14.00
2023-01-19T20:19:07.985Z,15.07
2023-01-19T20:21:43.060Z,12.18
2023-01-19T20:24:21.922Z,9.98
2023-01-19T20:26:53.604Z,12.90
2023-01-19T20:29:22.086Z,12.98
2023-01-19T20:31:53.722Z,9.80
2023-01-19T20:34:24.256Z,10.15
2023-01-19T20:36:55.149Z,10.30
2023-01-19T20:39:24.710Z,10.55
2023-01-19T20:41:53.946Z,9.68
2023-01-19T20:44:25.129Z,10.43
2023-01-19T20:46:54.738Z,10.10
2023-01-19T20:49:23.347Z,10.48
2023-01-19T20:51:52.810Z,9.55
2023-01-19T20:54:24.341Z,8.50
2023-01-19T20:56:53.228Z,10.20
2023-01-19T20:59:21.824Z,7.88
2023-01-19T21:01:50.830Z,9.05
2023-01-19T21:04:19.964Z,8.25
2023-01-19T21:06:48.886Z,7.95
2023-01-19T21:09:17.077Z,7.55
2023-01-19T21:11:45.789Z,9.18
2023-01-19T21:14:14.345Z,13.98
2023-01-19T21:16:43.422Z,10.32
2023-01-19T21:19:12.122Z,10.35
2023-01-19T21:21:40.743Z,8.25
2023-01-19T21:24:11.298Z,9.70
2023-01-19T21:26:40.127Z,7.72
2023-01-19T21:29:08.710Z,7.50
2023-01-19T21:31:37.459Z,11.68
2023-01-19T21:34:06.130Z,10.50
2023-01-19T21:36:34.760Z,9.88
2023-01-19T21:39:03.075Z,11.40
2023-01-19T21:41:31.518Z,14.98
2023-01-19T21:44:01.814Z,10.38
2023-01-19T21:46:31.784Z,8.00
2023-01-19T21:49:06.264Z,9.38
2023-01-19T21:51:36.418Z,8.63
2023-01-19T21:54:06.583Z,8.32
2023-01-19T21:56:35.329Z,9.82
2023-01-19T21:59:04.711Z,13.60
2023-01-19T22:01:34.217Z,11.38
2023-01-19T22:04:03.373Z,12.55
2023-01-19T22:06:31.514Z,10.40
2023-01-19T22:09:01.567Z,9.35
2023-01-19T22:11:30.221Z,12.35
2023-01-19T22:14:00.968Z,11.90
2023-01-19T22:16:31.299Z,8.48
2023-01-19T22:19:03.601Z,9.50
2023-01-19T22:21:34.523Z,8.80
2023-01-19T22:24:04.112Z,7.55
2023-01-19T22:26:35.339Z,9.30
2023-01-19T22:29:05.638Z,8.25
2023-01-19T22:31:34.407Z,11.88
2023-01-19T22:34:02.900Z,7.07
2023-01-19T22:36:34.749Z,7.30
2023-01-19T22:39:06.468Z,8.27
2023-01-19T22:41:36.886Z,14.82
2023-01-19T22:44:12.236Z,12.23
2023-01-19T22:46:40.893Z,9.05
2023-01-19T22:49:11.477Z,13.05
2023-01-19T22:51:40.099Z,12.45
2023-01-19T22:54:08.812Z,5.22
2023-01-19T22:56:39.447Z,11.35
2023-01-19T22:59:08.181Z,6.65
2023-01-19T23:01:42.435Z,6.90
2023-01-19T23:04:17.249Z,6.18
2023-01-19T23:06:50.160Z,8.10
2023-01-19T23:09:19.157Z,11.75
2023-01-19T23:11:51.399Z,6.47
2023-01-19T23:14:22.258Z,6.93
2023-01-19T23:16:51.150Z,8.90
2023-01-19T23:19:20.102Z,12.05
2023-01-19T23:21:51.407Z,8.15
2023-01-19T23:24:19.825Z,5.63
2023-01-19T23:26:51.356Z,10.18
2023-01-19T23:29:20.960Z,8.57
2023-01-19T23:31:50.377Z,5.78
2023-01-19T23:34:19.314Z,5.32
2023-01-19T23:36:47.707Z,9.63
2023-01-19T23:39:21.457Z,5.68
2023-01-19T23:41:49.814Z,5.13
2023-01-19T23:44:18.889Z,4.50
2023-01-19T23:46:47.828Z,5.85
2023-01-19T23:49:16.587Z,4.55
2023-01-19T23:51:44.786Z,4.55
2023-01-19T23:54:13.081Z,6.97
2023-01-19T23:56:43.806Z,8.90
2023-01-19T23:59:14.848Z,5.03
